createdAt,value
2019-04-20T00:00:37.193Z,18.30
2019-04-20T00:03:07.547Z,17.20
2019-04-20T00:05:37.312Z,15.97
2019-04-20T00:08:14.974Z,16.93
2019-04-20T00:10:47.598Z,16.70
2019-04-20T00:13:21.575Z,16.13
2019-04-20T00:15:40.883Z,15.50
2019-04-20T00:18:12.204Z,17.27
2019-04-20T00:20:43.793Z,15.53
2019-04-20T00:23:22.629Z,17.43
2019-04-20T00:26:14.178Z,15.60
2019-04-20T00:28:50.852Z,15.90
2019-04-20T00:31:24.852Z,17.43
2019-04-20T00:33:50.643Z,15.73
2019-04-20T00:36:10.039Z,15.80
2019-04-20T00:38:47.778Z,17.47
2019-04-20T00:41:15.115Z,16.20
2019-04-20T00:43:43.834Z,16.00
2019-04-20T00:46:23.106Z,15.93
2019-04-20T00:48:53.645Z,15.20
2019-04-20T00:51:31.419Z,15.03
2019-04-20T00:53:51.249Z,15.10
2019-04-20T00:56:18.328Z,17.63
2019-04-20T00:59:04.238Z,21.93
2019-04-20T01:01:44.170Z,14.70
2019-04-20T01:04:10.787Z,16.57
2019-04-20T01:06:42.359Z,15.30
2019-04-20T01:09:01.338Z,15.67
2019-04-20T01:11:36.740Z,15.73
2019-04-20T01:14:05.977Z,16.73
2019-04-20T01:16:41.774Z,16.87
2019-04-20T01:19:04.620Z,15.47
2019-04-20T01:21:35.482Z,14.27
2019-04-20T01:24:08.303Z,13.40
2019-04-20T01:26:44.232Z,13.37
2019-04-20T01:29:20.530Z,14.43
2019-04-20T01:31:56.011Z,14.70
2019-04-20T01:34:26.521Z,15.37
2019-04-20T01:36:56.358Z,15.47
2019-04-20T01:39:25.252Z,12.80
2019-04-20T01:41:45.379Z,15.33
2019-04-20T01:44:18.501Z,15.23
2019-04-20T01:46:51.948Z,13.63
2019-04-20T01:49:22.280Z,15.17
2019-04-20T01:51:57.779Z,16.80
2019-04-20T01:54:38.639Z,15.60
2019-04-20T01:57:04.760Z,14.50
2019-04-20T01:59:44.063Z,12.20
2019-04-20T02:02:11.564Z,15.67
2019-04-20T02:04:46.047Z,14.50
2019-04-20T02:07:13.547Z,13.50
2019-04-20T02:09:49.917Z,14.93
2019-04-20T02:12:21.891Z,13.27
2019-04-20T02:14:52.445Z,13.37
2019-04-20T02:17:27.422Z,15.60
2019-04-20T02:20:06.579Z,14.83
2019-04-20T02:22:40.805Z,16.53
2019-04-20T02:24:51.032Z,13.47
2019-04-20T02:27:31.354Z,13.87
2019-04-20T02:30:21.890Z,14.33
2019-04-20T02:33:03.655Z,19.30
2019-04-20T02:35:49.220Z,16.23
2019-04-20T02:40:47.495Z,13.17
2019-04-20T02:48:13.470Z,11.93
2019-04-20T02:50:49.596Z,16.33
2019-04-20T02:53:20.457Z,13.80
2019-04-20T02:56:09.045Z,14.77
2019-04-20T02:58:15.285Z,11.90
2019-04-20T03:01:02.305Z,12.87
2019-04-20T03:03:03.213Z,14.70
2019-04-20T03:05:33.137Z,15.43
2019-04-20T03:08:15.400Z,12.30
2019-04-20T03:10:52.649Z,13.53
2019-04-20T03:13:18.684Z,16.37
2019-04-20T03:15:51.966Z,14.53
2019-04-20T03:18:22.330Z,12.40
2019-04-20T03:20:56.458Z,12.93
2019-04-20T03:26:12.522Z,15.83
2019-04-20T03:28:56.764Z,13.43
2019-04-20T03:36:53.168Z,15.97
2019-04-20T03:39:19.060Z,15.93
2019-04-20T03:41:38.459Z,16.43
2019-04-20T03:44:09.955Z,15.70
2019-04-20T03:46:43.459Z,18.07
2019-04-20T03:49:27.991Z,17.50
2019-04-20T03:51:59.003Z,15.60
2019-04-20T03:54:38.611Z,16.37
2019-04-20T03:57:20.960Z,17.53
2019-04-20T03:59:54.838Z,14.13
2019-04-20T04:02:37.683Z,14.50
2019-04-20T04:05:08.762Z,15.10
2019-04-20T04:07:32.382Z,14.30
2019-04-20T04:10:09.821Z,15.37
2019-04-20T04:13:03.029Z,17.47
2019-04-20T04:15:36.212Z,15.57
2019-04-20T04:18:13.607Z,15.47
2019-04-20T04:21:03.885Z,14.20
2019-04-20T04:23:45.922Z,15.37
2019-04-20T04:26:20.399Z,15.37
2019-04-20T04:28:50.210Z,14.43
2019-04-20T04:31:20.465Z,16.53
2019-04-20T04:36:21.292Z,16.30
2019-04-20T04:38:57.067Z,15.73
2019-04-20T04:41:35.505Z,15.10
2019-04-20T04:44:00.686Z,15.37
2019-04-20T04:46:14.485Z,15.17
2019-04-20T04:48:47.546Z,14.30
2019-04-20T04:51:22.144Z,14.00
2019-04-20T04:53:56.917Z,17.00
2019-04-20T04:56:21.438Z,14.63
2019-04-20T04:58:49.599Z,15.50
2019-04-20T05:01:24.871Z,16.17
2019-04-20T05:04:18.424Z,13.23
2019-04-20T05:06:35.501Z,14.47
2019-04-20T05:08:58.480Z,15.00
2019-04-20T05:11:25.813Z,18.40
2019-04-20T05:14:03.341Z,12.70
2019-04-20T05:16:45.067Z,11.87
2019-04-20T05:19:18.947Z,12.87
2019-04-20T05:21:58.721Z,13.63
2019-04-20T05:24:27.943Z,14.80
2019-04-20T05:27:07.277Z,15.17
2019-04-20T05:29:21.539Z,11.90
2019-04-20T05:31:50.959Z,11.77
2019-04-20T05:34:38.497Z,13.27
2019-04-20T05:37:15.068Z,12.93
2019-04-20T05:39:41.443Z,11.80
2019-04-20T05:42:13.270Z,11.40
2019-04-20T05:44:48.622Z,14.33
2019-04-20T05:47:13.661Z,15.13
2019-04-20T05:49:42.906Z,11.50
2019-04-20T05:52:31.314Z,11.67
2019-04-20T05:54:52.368Z,10.47
2019-04-20T05:57:25.028Z,11.47
2019-04-20T05:59:57.181Z,12.43
2019-04-20T06:02:25.037Z,11.33
2019-04-20T06:07:26.677Z,11.63
2019-04-20T06:09:59.964Z,10.67
2019-04-20T06:12:31.477Z,10.60
2019-04-20T06:14:55.911Z,11.47
2019-04-20T06:17:31.355Z,10.67
2019-04-20T06:20:06.169Z,10.97
2019-04-20T06:22:42.780Z,9.40
2019-04-20T06:25:33.381Z,10.43
2019-04-20T06:27:49.208Z,10.33
2019-04-20T06:30:13.733Z,9.87
2019-04-20T06:33:45.923Z,10.83
2019-04-20T06:38:45.588Z,9.90
2019-04-20T06:41:09.978Z,10.67
2019-04-20T06:43:31.480Z,9.63
2019-04-20T06:46:10.356Z,9.47
2019-04-20T06:48:51.367Z,12.00
2019-04-20T06:51:45.382Z,9.77
2019-04-20T06:54:28.700Z,8.93
2019-04-20T06:57:05.774Z,8.80
2019-04-20T06:59:42.198Z,10.27
2019-04-20T07:02:11.887Z,10.90
2019-04-20T07:09:52.955Z,11.10
2019-04-20T07:12:13.076Z,10.03
2019-04-20T07:14:39.087Z,12.83
2019-04-20T07:17:26.965Z,11.00
2019-04-20T07:20:01.388Z,11.40
2019-04-20T07:22:39.459Z,12.13
2019-04-20T07:27:36.584Z,11.00
2019-04-20T07:30:08.089Z,10.03
2019-04-20T07:32:48.447Z,8.47
2019-04-20T07:35:08.720Z,10.53
2019-04-20T07:40:17.559Z,8.77
2019-04-20T07:42:46.775Z,10.33
2019-04-20T07:45:21.917Z,9.50
2019-04-20T07:50:13.581Z,8.27
2019-04-20T07:52:43.850Z,8.30
2019-04-20T07:57:52.604Z,9.60
2019-04-20T08:00:35.606Z,8.10
2019-04-20T08:03:22.051Z,9.03
2019-04-20T08:05:44.305Z,8.53
2019-04-20T08:08:22.953Z,8.47
2019-04-20T08:10:54.419Z,7.53
2019-04-20T08:13:42.134Z,10.97
2019-04-20T08:16:00.656Z,9.90
2019-04-20T08:18:38.656Z,10.13
2019-04-20T08:21:17.921Z,9.43
2019-04-20T08:23:31.703Z,8.73
2019-04-20T08:25:53.234Z,10.20
2019-04-20T08:28:23.254Z,9.27
2019-04-20T08:31:13.148Z,8.93
2019-04-20T08:34:03.985Z,8.90
2019-04-20T08:36:22.898Z,8.53
2019-04-20T08:41:20.553Z,8.67
2019-04-20T08:43:59.051Z,9.77
2019-04-20T08:46:25.146Z,8.13
2019-04-20T08:49:03.306Z,11.57
2019-04-20T08:51:38.634Z,9.60
2019-04-20T08:54:02.248Z,9.07
2019-04-20T08:56:27.156Z,9.20
2019-04-20T08:58:46.103Z,8.63
2019-04-20T09:01:24.032Z,10.17
2019-04-20T09:03:58.892Z,11.30
2019-04-20T09:06:32.282Z,10.67
2019-04-20T09:09:10.684Z,9.63
2019-04-20T09:11:46.527Z,9.47
2019-04-20T09:13:58.390Z,10.40
2019-04-20T09:16:30.561Z,11.87
2019-04-20T09:19:04.684Z,9.60
2019-04-20T09:21:40.278Z,9.73
2019-04-20T09:24:30.292Z,9.17
2019-04-20T09:26:47.774Z,10.43
2019-04-20T09:29:14.892Z,10.33
2019-04-20T09:31:47.206Z,9.57
2019-04-20T09:34:51.326Z,9.17
2019-04-20T09:37:27.769Z,11.00
2019-04-20T09:39:52.864Z,10.30
2019-04-20T09:42:11.512Z,9.95
2019-04-20T09:44:46.043Z,9.60
2019-04-20T09:47:12.464Z,10.48
2019-04-20T09:49:56.769Z,12.15
2019-04-20T09:52:29.108Z,12.90
2019-04-20T09:55:04.329Z,11.55
2019-04-20T09:57:33.290Z,13.03
2019-04-20T10:00:05.657Z,11.65
2019-04-20T10:02:25.003Z,12.50
2019-04-20T10:04:51.463Z,12.53
2019-04-20T10:07:24.014Z,10.95
2019-04-20T10:09:53.741Z,13.75
2019-04-20T10:12:24.097Z,14.20
2019-04-20T10:14:57.543Z,12.07
2019-04-20T10:17:27.157Z,11.57
2019-04-20T10:19:56.056Z,11.05
2019-04-20T10:22:26.742Z,11.35
2019-04-20T10:24:57.161Z,13.28
2019-04-20T10:27:26.923Z,12.88
2019-04-20T10:29:58.387Z,12.07
2019-04-20T10:32:34.194Z,10.45
2019-04-20T10:34:58.999Z,10.63
2019-04-20T10:37:31.544Z,12.28
2019-04-20T10:40:02.762Z,12.55
2019-04-20T10:42:32.521Z,10.65
2019-04-20T10:45:02.892Z,11.43
2019-04-20T10:47:33.335Z,12.05
2019-04-20T10:50:04.937Z,11.95
2019-04-20T10:52:35.961Z,11.10
2019-04-20T10:55:06.656Z,12.88
2019-04-20T10:57:37.520Z,10.60
2019-04-20T11:00:09.856Z,15.03
2019-04-20T11:02:42.530Z,12.78
2019-04-20T11:05:12.669Z,12.40
2019-04-20T11:07:42.744Z,12.73
2019-04-20T11:10:18.777Z,12.78
2019-04-20T11:12:44.289Z,12.93
2019-04-20T11:15:14.621Z,13.45
2019-04-20T11:17:45.655Z,15.38
2019-04-20T11:20:15.417Z,11.65
2019-04-20T11:22:46.281Z,13.93
2019-04-20T11:25:16.561Z,11.80
2019-04-20T11:27:46.249Z,12.80
2019-04-20T11:30:16.185Z,14.87
2019-04-20T11:32:48.423Z,12.37
2019-04-20T11:35:26.893Z,13.45
2019-04-20T11:37:49.382Z,14.68
2019-04-20T11:40:19.223Z,19.10
2019-04-20T11:42:49.985Z,17.92
2019-04-20T11:45:20.574Z,17.17
2019-04-20T11:47:51.590Z,16.62
2019-04-20T11:50:21.897Z,15.78
2019-04-20T11:52:52.997Z,18.57
2019-04-20T11:55:22.777Z,15.87
2019-04-20T11:57:52.348Z,14.10
2019-04-20T12:00:25.732Z,20.05
2019-04-20T12:03:16.275Z,17.20
2019-04-20T12:05:45.994Z,17.60
2019-04-20T12:08:11.341Z,17.85
2019-04-20T12:10:43.829Z,18.35
2019-04-20T12:13:14.593Z,18.75
2019-04-20T12:15:43.707Z,16.97
2019-04-20T12:18:13.737Z,18.12
2019-04-20T12:20:44.880Z,17.65
2019-04-20T12:23:15.917Z,16.20
2019-04-20T12:25:46.272Z,14.17
2019-04-20T12:28:15.901Z,18.10
2019-04-20T12:30:45.965Z,13.80
2019-04-20T12:33:17.802Z,15.05
2019-04-20T12:35:47.994Z,14.33
2019-04-20T12:38:19.015Z,13.45
2019-04-20T12:40:48.810Z,14.80
2019-04-20T12:43:20.336Z,15.37
2019-04-20T12:45:50.177Z,14.73
2019-04-20T12:48:19.824Z,15.60
2019-04-20T12:50:49.930Z,11.80
2019-04-20T12:53:20.460Z,11.90
2019-04-20T12:55:50.752Z,10.63
2019-04-20T12:58:20.881Z,14.03
2019-04-20T13:00:52.464Z,13.80
2019-04-20T13:03:23.580Z,12.50
2019-04-20T13:05:54.226Z,14.47
2019-04-20T13:08:31.817Z,11.63
2019-04-20T13:10:58.821Z,10.10
2019-04-20T13:13:34.561Z,10.40
2019-04-20T13:16:22.557Z,12.10
2019-04-20T13:18:55.274Z,11.60
2019-04-20T13:21:25.087Z,10.10
2019-04-20T13:23:56.495Z,11.77
2019-04-20T13:26:27.042Z,10.70
2019-04-20T13:28:57.206Z,12.03
2019-04-20T13:31:26.715Z,13.57
2019-04-20T13:33:59.133Z,11.00
2019-04-20T13:36:30.279Z,13.00
2019-04-20T13:38:59.934Z,9.83
2019-04-20T13:41:29.792Z,11.10
2019-04-20T13:44:01.363Z,14.23
2019-04-20T13:46:31.278Z,10.77
2019-04-20T13:49:01.061Z,11.57
2019-04-20T13:51:30.973Z,11.30
2019-04-20T13:54:01.750Z,12.87
2019-04-20T13:56:32.253Z,12.93
2019-04-20T13:59:07.770Z,14.07
2019-04-20T14:01:46.428Z,11.87
2019-04-20T14:04:23.600Z,10.23
2019-04-20T14:06:55.705Z,11.03
2019-04-20T14:09:25.972Z,10.33
2019-04-20T14:11:57.120Z,11.50
2019-04-20T14:14:28.982Z,10.40
2019-04-20T14:16:59.073Z,14.87
2019-04-20T14:19:29.310Z,9.77
2019-04-20T14:21:59.791Z,11.43
2019-04-20T14:24:29.248Z,11.40
2019-04-20T14:27:01.199Z,11.80
2019-04-20T14:29:31.103Z,8.87
2019-04-20T14:32:03.388Z,9.40
2019-04-20T14:34:33.024Z,10.73
2019-04-20T14:37:02.688Z,8.80
2019-04-20T14:39:34.198Z,12.03
2019-04-20T14:42:04.582Z,8.30
2019-04-20T14:44:34.227Z,11.07
2019-04-20T14:47:03.933Z,11.07
2019-04-20T14:49:34.591Z,11.33
2019-04-20T14:52:06.206Z,9.27
2019-04-20T14:54:37.204Z,8.60
2019-04-20T14:57:07.714Z,11.77
2019-04-20T14:59:38.939Z,9.57
2019-04-20T15:02:10.545Z,10.13
2019-04-20T15:04:54.877Z,8.93
2019-04-20T15:07:24.742Z,11.67
2019-04-20T15:09:55.096Z,14.17
2019-04-20T15:12:37.847Z,11.83
2019-04-20T15:14:58.774Z,11.47
2019-04-20T15:17:33.334Z,10.93
2019-04-20T15:20:05.652Z,11.23
2019-04-20T15:22:41.255Z,11.57
2019-04-20T15:25:11.704Z,15.47
2019-04-20T15:27:44.686Z,15.60
2019-04-20T15:30:14.026Z,13.97
2019-04-20T15:32:44.930Z,14.40
2019-04-20T15:35:19.201Z,16.83
2019-04-20T15:37:47.086Z,17.07
2019-04-20T15:40:17.382Z,13.63
2019-04-20T15:42:54.846Z,16.50
2019-04-20T15:45:19.041Z,20.60
2019-04-20T15:47:50.186Z,18.00
2019-04-20T15:50:20.245Z,19.80
2019-04-20T15:52:52.664Z,20.63
2019-04-20T15:55:27.467Z,18.03
2019-04-20T15:57:53.480Z,19.63
2019-04-20T16:00:24.484Z,19.43
2019-04-20T16:02:59.242Z,19.10
2019-04-20T16:05:40.884Z,20.97
2019-04-20T16:08:28.193Z,20.20
2019-04-20T16:10:59.265Z,19.97
2019-04-20T16:13:37.113Z,23.90
2019-04-20T16:16:01.499Z,22.30
2019-04-20T16:18:32.855Z,22.70
2019-04-20T16:21:08.003Z,23.27
2019-04-20T16:23:36.892Z,21.97
2019-04-20T16:26:27.038Z,20.77
2019-04-20T16:28:57.695Z,21.30
2019-04-20T16:31:28.711Z,22.67
2019-04-20T16:33:58.842Z,19.30
2019-04-20T16:36:28.592Z,21.53
2019-04-20T16:38:59.436Z,19.63
2019-04-20T16:41:30.505Z,22.07
2019-04-20T16:44:00.455Z,25.67
2019-04-20T16:46:30.214Z,31.50
2019-04-20T16:49:00.847Z,33.40
2019-04-20T16:51:31.148Z,34.27
2019-04-20T16:54:01.568Z,34.80
2019-04-20T16:56:31.148Z,36.40
2019-04-20T16:59:06.021Z,33.73
2019-04-20T17:01:31.856Z,30.27
2019-04-20T17:04:07.129Z,26.63
2019-04-20T17:06:34.207Z,28.70
2019-04-20T17:09:05.238Z,28.93
2019-04-20T17:11:36.075Z,26.13
2019-04-20T17:14:06.689Z,25.87
2019-04-20T17:16:37.542Z,30.63
2019-04-20T17:19:07.825Z,26.93
2019-04-20T17:21:37.459Z,25.43
2019-04-20T17:24:08.994Z,27.30
2019-04-20T17:26:50.673Z,30.07
2019-04-20T17:32:05.499Z,26.67
2019-04-20T17:34:47.030Z,24.10
2019-04-20T17:37:06.807Z,24.13
2019-04-20T17:39:54.022Z,29.03
2019-04-20T17:42:37.404Z,28.07
2019-04-20T17:45:00.788Z,28.33
2019-04-20T17:47:43.143Z,29.20
2019-04-20T17:50:12.853Z,28.07
2019-04-20T17:52:47.463Z,29.30
2019-04-20T17:55:17.792Z,28.03
2019-04-20T17:57:37.783Z,28.30
2019-04-20T18:00:15.196Z,26.77
2019-04-20T18:03:05.988Z,32.53
2019-04-20T18:05:57.057Z,27.87
2019-04-20T18:08:27.119Z,28.93
2019-04-20T18:10:50.769Z,30.73
2019-04-20T18:13:17.805Z,29.93
2019-04-20T18:15:57.503Z,25.60
2019-04-20T18:18:35.304Z,27.87
2019-04-20T18:21:08.593Z,25.83
2019-04-20T18:23:41.819Z,24.20
2019-04-20T18:26:35.743Z,28.57
2019-04-20T18:29:02.066Z,29.90
2019-04-20T18:31:15.349Z,31.63
2019-04-20T18:33:46.407Z,36.67
2019-04-20T18:36:23.619Z,35.33
2019-04-20T18:38:54.223Z,41.03
2019-04-20T18:41:31.790Z,42.90
2019-04-20T18:43:55.921Z,42.27
2019-04-20T18:46:39.678Z,44.67
2019-04-20T18:49:09.790Z,45.20
2019-04-20T18:51:25.965Z,45.67
2019-04-20T18:54:04.753Z,42.83
2019-04-20T18:56:33.040Z,40.60
2019-04-20T18:58:59.388Z,43.63
2019-04-20T19:01:31.958Z,45.20
2019-04-20T19:04:01.602Z,45.03
2019-04-20T19:06:31.834Z,47.10
2019-04-20T19:09:02.790Z,48.60
2019-04-20T19:11:37.530Z,43.87
2019-04-20T19:14:14.832Z,47.60
2019-04-20T19:16:53.819Z,49.57
2019-04-20T19:19:24.458Z,45.13
2019-04-20T19:21:45.967Z,48.83
2019-04-20T19:24:18.488Z,40.40
2019-04-20T19:26:51.512Z,43.97
2019-04-20T19:29:26.476Z,44.30
2019-04-20T19:32:23.848Z,42.90
2019-04-20T19:34:52.654Z,44.23
2019-04-20T19:37:23.214Z,42.83
2019-04-20T19:40:02.382Z,42.30
2019-04-20T19:42:31.898Z,41.23
2019-04-20T19:45:06.593Z,42.07
2019-04-20T19:47:41.334Z,38.73
2019-04-20T19:50:23.332Z,39.03
2019-04-20T19:53:09.122Z,38.17
2019-04-20T19:55:11.869Z,35.63
2019-04-20T19:57:42.433Z,36.87
2019-04-20T19:59:57.957Z,35.20
2019-04-20T20:02:27.676Z,33.70
2019-04-20T20:05:01.270Z,39.00
2019-04-20T20:07:37.480Z,38.57
2019-04-20T20:10:03.721Z,35.90
2019-04-20T20:12:31.512Z,41.53
2019-04-20T20:15:01.672Z,38.00
2019-04-20T20:17:48.389Z,40.83
2019-04-20T20:20:28.750Z,41.63
2019-04-20T20:22:41.101Z,45.23
2019-04-20T20:25:07.276Z,44.77
2019-04-20T20:27:47.571Z,53.50
2019-04-20T20:30:20.497Z,53.67
2019-04-20T20:32:56.560Z,54.50
2019-04-20T20:35:16.672Z,54.60
2019-04-20T20:37:51.658Z,48.33
2019-04-20T20:40:23.283Z,42.53
2019-04-20T20:42:56.549Z,44.50
2019-04-20T20:45:26.233Z,45.57
2019-04-20T20:48:05.015Z,47.33
2019-04-20T20:50:37.676Z,48.20
2019-04-20T20:53:00.837Z,49.50
2019-04-20T20:55:31.836Z,52.37
2019-04-20T20:58:00.666Z,50.70
2019-04-20T21:00:34.842Z,47.20
2019-04-20T21:03:01.832Z,49.10
2019-04-20T21:05:27.385Z,44.10
2019-04-20T21:07:57.503Z,46.00
2019-04-20T21:10:33.071Z,39.33
2019-04-20T21:13:01.842Z,37.83
2019-04-20T21:15:31.624Z,33.60
2019-04-20T21:18:20.778Z,36.63
2019-04-20T21:20:55.241Z,31.80
2019-04-20T21:23:17.495Z,35.70
2019-04-20T21:25:47.804Z,33.83
2019-04-20T21:28:13.081Z,36.37
2019-04-20T21:30:46.403Z,36.43
2019-04-20T21:33:14.994Z,36.17
2019-04-20T21:35:48.571Z,38.57
2019-04-20T21:38:18.531Z,37.30
2019-04-20T21:40:49.677Z,43.37
2019-04-20T21:43:20.659Z,45.47
2019-04-20T21:45:56.379Z,42.67
2019-04-20T21:48:40.548Z,44.93
2019-04-20T21:51:08.635Z,44.93
2019-04-20T21:53:28.478Z,45.83
2019-04-20T21:55:55.242Z,45.40
2019-04-20T21:58:30.243Z,45.03
2019-04-20T22:01:10.859Z,41.40
2019-04-20T22:03:27.938Z,42.90
2019-04-20T22:06:04.723Z,51.23
2019-04-20T22:08:39.141Z,48.13
2019-04-20T22:11:06.387Z,45.73
2019-04-20T22:13:40.268Z,50.07
2019-04-20T22:16:12.162Z,42.07
2019-04-20T22:18:54.291Z,48.70
2019-04-20T22:21:21.403Z,44.93
2019-04-20T22:23:59.752Z,43.17
2019-04-20T22:26:26.348Z,40.37
2019-04-20T22:28:46.220Z,37.13
2019-04-20T22:31:15.954Z,40.13
2019-04-20T22:33:47.287Z,36.17
2019-04-20T22:36:18.079Z,35.57
2019-04-20T22:39:07.458Z,35.63
2019-04-20T22:41:40.676Z,36.03
2019-04-20T22:44:16.515Z,35.50
2019-04-20T22:46:43.784Z,37.80
2019-04-20T22:49:35.119Z,38.63
2019-04-20T22:51:55.672Z,35.97
2019-04-20T22:54:34.044Z,37.23
2019-04-20T22:56:57.200Z,40.00
2019-04-20T22:59:22.861Z,36.30
2019-04-20T23:01:55.229Z,37.60
2019-04-20T23:04:21.978Z,38.90
2019-04-20T23:06:52.352Z,40.43
2019-04-20T23:09:22.810Z,40.77
2019-04-20T23:11:54.691Z,43.97
2019-04-20T23:14:24.604Z,40.27
2019-04-20T23:16:56.150Z,36.60
2019-04-20T23:19:35.708Z,36.33
2019-04-20T23:22:01.237Z,37.67
2019-04-20T23:24:29.144Z,35.43
2019-04-20T23:27:04.406Z,38.17
2019-04-20T23:29:37.715Z,31.00
2019-04-20T23:32:08.350Z,34.10
2019-04-20T23:34:39.004Z,29.07
2019-04-20T23:37:16.067Z,32.33
2019-04-20T23:39:41.486Z,29.93
2019-04-20T23:42:12.991Z,32.57
2019-04-20T23:44:53.037Z,31.30
2019-04-20T23:47:24.011Z,31.07
2019-04-20T23:50:14.068Z,32.67
2019-04-20T23:52:50.338Z,30.03
2019-04-20T23:55:04.120Z,34.37
2019-04-20T23:57:29.444Z,32.90
